Time;durP1;ratioP1;P1;durP2;ratioP2;P2;SDS_P1;SDS_P2;PMS_P1;PMS_P2;Temp;Humidity;BMP_temperature;BMP_pressure;BME280_temperature;BME280_humidity;BME280_pressure;Samples;Min_cycle;Max_cycle;Signal;HPM_P1;HPM_P2
2024/04/10 00:02:25;;;;;;;29.92;25.45;;;;;;;;;;5213546;27;20077;-50
2024/04/10 00:04:53;;;;;;;38.80;25.63;;;;;;;;;;5241698;27;20042;-52
2024/04/10 00:07:19;;;;;;;35.25;25.60;;;;;;;;;;5243053;27;20018;-50
2024/04/10 00:09:46;;;;;;;38.03;26.38;;;;;;;;;;5243102;27;20015;-50
2024/04/10 00:12:12;;;;;;;30.53;23.57;;;;;;;;;;5242646;27;20010;-50
2024/04/10 00:14:38;;;;;;;34.78;25.90;;;;;;;;;;5242206;27;20085;-51
2024/04/10 00:17:05;;;;;;;37.28;24.83;;;;;;;;;;5242745;27;20451;-50
2024/04/10 00:19:31;;;;;;;40.00;26.63;;;;;;;;;;5242882;27;20034;-50
2024/04/10 00:21:57;;;;;;;30.13;24.27;;;;;;;;;;5240988;27;20077;-50
2024/04/10 00:24:23;;;;;;;32.60;24.67;;;;;;;;;;5241771;27;20082;-50
2024/04/10 00:26:50;;;;;;;34.90;24.98;;;;;;;;;;5213707;27;20021;-50
2024/04/10 00:29:16;;;;;;;39.90;29.58;;;;;;;;;;5241553;27;20026;-50
2024/04/10 00:31:45;;;;;;;44.77;29.73;;;;;;;;;;5242537;27;20012;-50
2024/04/10 00:34:11;;;;;;;36.08;28.02;;;;;;;;;;5242645;27;20003;-52
2024/04/10 00:36:37;;;;;;;32.83;25.35;;;;;;;;;;5242293;27;20022;-50
2024/04/10 00:39:03;;;;;;;29.93;25.53;;;;;;;;;;5242354;27;20380;-51
2024/04/10 00:41:30;;;;;;;32.80;25.90;;;;;;;;;;5242184;27;20257;-50
2024/04/10 00:43:56;;;;;;;34.67;27.20;;;;;;;;;;5242705;27;20003;-50
2024/04/10 00:46:23;;;;;;;33.90;25.43;;;;;;;;;;5241775;27;20367;-49
2024/04/10 00:48:49;;;;;;;30.20;24.90;;;;;;;;;;5242643;27;20073;-51
2024/04/10 00:51:25;;;;;;;28.90;23.95;;;;;;;;;;5240474;27;20003;-49
2024/04/10 00:53:52;;;;;;;28.98;22.23;;;;;;;;;;5242409;27;20007;-50
2024/04/10 00:56:18;;;;;;;29.40;21.93;;;;;;;;;;5242134;27;20018;-50
2024/04/10 00:58:47;;;;;;;27.60;21.70;;;;;;;;;;5242098;27;20456;-50
2024/04/10 01:01:14;;;;;;;26.90;22.45;;;;;;;;;;5212749;27;20003;-50
2024/04/10 01:03:40;;;;;;;27.45;21.73;;;;;;;;;;5242077;27;20003;-50
2024/04/10 01:06:07;;;;;;;27.50;22.60;;;;;;;;;;5240211;27;19999;-48
2024/04/10 01:08:35;;;;;;;25.88;21.98;;;;;;;;;;5241957;27;20074;-50
2024/04/10 01:11:02;;;;;;;25.42;20.52;;;;;;;;;;5241572;27;20007;-50
2024/04/10 01:13:29;;;;;;;26.30;21.48;;;;;;;;;;5241890;27;20047;-50
2024/04/10 01:15:55;;;;;;;28.00;21.58;;;;;;;;;;5241762;27;20022;-50
2024/04/10 01:18:21;;;;;;;23.77;19.87;;;;;;;;;;5239964;27;20003;-50
2024/04/10 01:20:50;;;;;;;26.95;22.73;;;;;;;;;;5212547;27;20006;-50
2024/04/10 01:23:17;;;;;;;27.15;22.30;;;;;;;;;;5241540;27;20086;-49
2024/04/10 01:25:43;;;;;;;31.15;25.23;;;;;;;;;;5241662;27;20018;-48
2024/04/10 01:28:10;;;;;;;30.50;26.73;;;;;;;;;;5241449;27;20011;-51
2024/04/10 01:30:36;;;;;;;30.10;25.60;;;;;;;;;;5241348;27;20018;-50
2024/04/10 01:33:02;;;;;;;31.45;23.75;;;;;;;;;;5241638;27;20021;-50
2024/04/10 01:35:28;;;;;;;28.70;22.00;;;;;;;;;;5240750;27;20039;-51
2024/04/10 01:37:55;;;;;;;28.30;22.43;;;;;;;;;;5244437;27;20898;-50
2024/04/10 01:40:22;;;;;;;25.95;21.30;;;;;;;;;;5244991;27;19995;-51
2024/04/10 01:42:48;;;;;;;25.30;19.88;;;;;;;;;;5244697;27;20428;-50
2024/04/10 01:45:14;;;;;;;25.98;20.17;;;;;;;;;;5244450;27;20047;-52
2024/04/10 01:47:41;;;;;;;31.13;22.67;;;;;;;;;;5244701;27;20368;-50
2024/04/10 01:50:07;;;;;;;26.60;20.83;;;;;;;;;;5244978;27;20460;-50
2024/04/10 01:52:33;;;;;;;26.70;20.53;;;;;;;;;;5244910;27;20003;-50
2024/04/10 01:55:00;;;;;;;22.42;18.25;;;;;;;;;;5215197;27;20487;-52
2024/04/10 01:57:26;;;;;;;23.25;17.60;;;;;;;;;;5244377;27;20022;-50
2024/04/10 01:59:52;;;;;;;22.60;16.85;;;;;;;;;;5215131;27;19999;-50
2024/04/10 02:02:19;;;;;;;23.05;17.77;;;;;;;;;;5242927;27;20002;-50
2024/04/10 02:04:45;;;;;;;21.70;17.38;;;;;;;;;;5245099;27;20078;-51
2024/04/10 02:07:11;;;;;;;25.73;18.63;;;;;;;;;;5244381;27;20007;-51
2024/04/10 02:09:38;;;;;;;29.73;22.10;;;;;;;;;;5242614;27;20484;-50
2024/04/10 02:12:04;;;;;;;30.40;20.90;;;;;;;;;;5244350;27;20003;-53
2024/04/10 02:14:31;;;;;;;27.90;20.50;;;;;;;;;;5243870;27;20003;-54
2024/04/10 02:16:57;;;;;;;33.40;21.00;;;;;;;;;;5244653;27;19999;-52
2024/04/10 02:19:24;;;;;;;22.45;17.98;;;;;;;;;;5245018;27;20017;-50
2024/04/10 02:21:52;;;;;;;23.35;16.95;;;;;;;;;;5244512;27;20010;-51
2024/04/10 02:24:19;;;;;;;26.27;16.73;;;;;;;;;;5244954;27;20014;-52
2024/04/10 02:26:45;;;;;;;21.95;16.65;;;;;;;;;;5244179;27;20022;-51
2024/04/10 02:29:12;;;;;;;22.40;14.65;;;;;;;;;;5214515;27;20003;-50
2024/04/10 02:31:38;;;;;;;23.30;15.47;;;;;;;;;;5242324;27;19999;-52
2024/04/10 02:34:08;;;;;;;20.42;14.48;;;;;;;;;;5244453;27;20242;-49
2024/04/10 02:36:34;;;;;;;20.73;15.60;;;;;;;;;;5243938;27;20469;-51
2024/04/10 02:39:01;;;;;;;23.83;15.37;;;;;;;;;;5243159;27;20046;-51
2024/04/10 02:41:27;;;;;;;19.57;14.97;;;;;;;;;;5243955;27;20003;-51
2024/04/10 02:43:53;;;;;;;21.70;15.80;;;;;;;;;;5214657;27;20007;-51
2024/04/10 02:46:19;;;;;;;21.57;15.70;;;;;;;;;;5243616;27;20348;-50
2024/04/10 02:48:45;;;;;;;19.40;15.80;;;;;;;;;;5242658;27;20021;-50
2024/04/10 02:51:12;;;;;;;20.15;14.52;;;;;;;;;;5240302;27;20805;-52
2024/04/10 02:53:38;;;;;;;21.35;15.40;;;;;;;;;;5213529;27;20364;-52
2024/04/10 02:56:05;;;;;;;22.23;14.50;;;;;;;;;;5243525;27;20460;-52
2024/04/10 02:58:31;;;;;;;17.95;12.07;;;;;;;;;;5214640;27;20010;-52
2024/04/10 03:00:57;;;;;;;15.50;10.98;;;;;;;;;;5241235;27;20022;-52
2024/04/10 03:03:24;;;;;;;14.65;10.23;;;;;;;;;;5243800;27;20081;-50
2024/04/10 03:06:03;;;;;;;18.08;9.75;;;;;;;;;;5243877;27;19999;-49
2024/04/10 03:08:30;;;;;;;11.65;8.70;;;;;;;;;;5244158;27;19996;-50
2024/04/10 03:10:56;;;;;;;10.75;8.90;;;;;;;;;;5243957;27;20007;-50
2024/04/10 03:13:23;;;;;;;8.68;7.13;;;;;;;;;;5244090;27;20006;-50
2024/04/10 03:15:49;;;;;;;10.07;5.22;;;;;;;;;;5242603;27;20017;-50
2024/04/10 03:18:15;;;;;;;7.57;4.97;;;;;;;;;;5242133;27;20490;-50
2024/04/10 03:20:42;;;;;;;5.20;3.43;;;;;;;;;;5243894;27;19998;-50
2024/04/10 03:23:08;;;;;;;3.33;2.30;;;;;;;;;;5243594;27;20290;-53
2024/04/10 03:25:34;;;;;;;4.88;1.90;;;;;;;;;;5213923;27;19999;-50
2024/04/10 03:28:00;;;;;;;2.87;1.73;;;;;;;;;;5242230;27;20011;-51
2024/04/10 03:30:27;;;;;;;3.47;1.55;;;;;;;;;;5213792;27;20412;-50
2024/04/10 03:32:54;;;;;;;4.60;1.40;;;;;;;;;;5242154;27;20009;-51
2024/04/10 03:35:20;;;;;;;3.38;1.52;;;;;;;;;;5243025;27;20475;-50
2024/04/10 03:37:46;;;;;;;1.05;1.05;;;;;;;;;;5243438;27;19999;-50
2024/04/10 03:40:13;;;;;;;2.08;1.10;;;;;;;;;;5242827;27;20002;-52
2024/04/10 03:42:39;;;;;;;1.15;1.05;;;;;;;;;;5243524;27;20471;-51
2024/04/10 03:45:06;;;;;;;2.80;1.10;;;;;;;;;;5242828;27;20326;-52
2024/04/10 03:47:32;;;;;;;1.65;1.10;;;;;;;;;;5243029;27;20097;-50
2024/04/10 03:50:00;;;;;;;8.70;1.05;;;;;;;;;;5242404;27;19999;-48
2024/04/10 03:52:26;;;;;;;2.08;1.30;;;;;;;;;;5243279;27;20546;-48
2024/04/10 03:54:52;;;;;;;2.35;1.05;;;;;;;;;;5243002;27;20464;-47
2024/04/10 03:57:19;;;;;;;2.55;1.20;;;;;;;;;;5242980;27;20077;-48
2024/04/10 03:59:45;;;;;;;2.47;1.33;;;;;;;;;;5213021;27;20003;-53
2024/04/10 04:02:11;;;;;;;1.58;1.20;;;;;;;;;;5242443;27;20091;-52
2024/04/10 04:04:37;;;;;;;1.77;1.40;;;;;;;;;;5242023;27;19999;-52
2024/04/10 04:07:03;;;;;;;2.40;1.08;;;;;;;;;;5242168;27;19999;-53
2024/04/10 04:09:30;;;;;;;8.40;1.35;;;;;;;;;;5214237;27;19996;-51
2024/04/10 04:11:56;;;;;;;3.67;1.30;;;;;;;;;;5241723;27;20003;-52
2024/04/10 04:14:22;;;;;;;3.25;1.58;;;;;;;;;;5213787;27;20073;-52
2024/04/10 04:16:49;;;;;;;2.13;1.93;;;;;;;;;;5243379;27;20010;-57
2024/04/10 04:19:16;;;;;;;5.55;1.45;;;;;;;;;;5242995;27;20011;-52
2024/04/10 04:21:42;;;;;;;2.80;1.50;;;;;;;;;;5242800;27;20038;-52
2024/04/10 04:24:08;;;;;;;3.17;1.70;;;;;;;;;;5213317;27;20003;-54
2024/04/10 04:26:34;;;;;;;3.03;1.70;;;;;;;;;;5242920;27;20552;-53
2024/04/10 04:29:00;;;;;;;3.00;1.73;;;;;;;;;;5242954;27;20343;-51
2024/04/10 04:31:26;;;;;;;3.30;1.67;;;;;;;;;;5241598;27;19999;-52
2024/04/10 04:33:54;;;;;;;2.03;1.48;;;;;;;;;;5243440;27;20078;-51
2024/04/10 04:36:20;;;;;;;1.63;1.52;;;;;;;;;;5243132;27;20007;-56
2024/04/10 04:38:46;;;;;;;3.20;1.67;;;;;;;;;;5242990;27;20006;-53
2024/04/10 04:41:13;;;;;;;1.50;1.30;;;;;;;;;;5242474;27;20410;-52
2024/04/10 04:43:39;;;;;;;2.00;1.80;;;;;;;;;;5242751;27;20093;-55
2024/04/10 04:46:11;;;;;;;2.72;1.77;;;;;;;;;;5242639;27;20014;-52
2024/04/10 04:48:37;;;;;;;2.05;1.90;;;;;;;;;;5242894;27;20024;-54
2024/04/10 04:51:07;;;;;;;1.70;1.38;;;;;;;;;;5242156;27;19995;-51
2024/04/10 04:53:34;;;;;;;3.97;1.45;;;;;;;;;;5240862;27;20026;-51
2024/04/10 04:56:00;;;;;;;2.65;1.48;;;;;;;;;;5242336;27;20011;-57
2024/04/10 04:58:26;;;;;;;3.95;1.92;;;;;;;;;;5242390;27;20416;-55
2024/04/10 05:00:52;;;;;;;3.03;1.60;;;;;;;;;;5242304;27;20003;-54
2024/04/10 05:06:06;;;;;;;3.88;1.63;;;;;;;;;;5242400;27;20003;-51
2024/04/10 05:08:33;;;;;;;2.22;1.50;;;;;;;;;;5240609;27;20007;-53
2024/04/10 05:11:03;;;;;;;2.08;1.50;;;;;;;;;;5243585;27;20009;-53
2024/04/10 05:13:29;;;;;;;1.60;1.50;;;;;;;;;;5245389;27;20007;-51
2024/04/10 05:15:58;;;;;;;3.88;1.80;;;;;;;;;;5245522;27;20027;-51
2024/04/10 05:18:25;;;;;;;2.40;2.15;;;;;;;;;;5245544;27;20011;-56
2024/04/10 05:20:52;;;;;;;2.92;1.50;;;;;;;;;;5243563;27;20003;-51
2024/04/10 05:23:18;;;;;;;2.75;1.75;;;;;;;;;;5245706;27;20471;-52
2024/04/10 05:25:48;;;;;;;2.47;1.92;;;;;;;;;;5245300;27;20004;-52
2024/04/10 05:28:14;;;;;;;2.60;1.90;;;;;;;;;;5215736;27;20007;-51
2024/04/10 05:30:41;;;;;;;3.63;2.00;;;;;;;;;;5244914;27;20007;-56
2024/04/10 05:33:07;;;;;;;3.78;1.98;;;;;;;;;;5245259;27;20003;-55
2024/04/10 05:35:33;;;;;;;5.20;1.80;;;;;;;;;;5243659;27;20070;-56
2024/04/10 05:37:59;;;;;;;2.20;1.60;;;;;;;;;;5245489;27;20040;-54
2024/04/10 05:40:26;;;;;;;2.45;2.05;;;;;;;;;;5244950;27;20003;-56
2024/04/10 05:42:52;;;;;;;6.63;2.07;;;;;;;;;;5245413;27;20097;-54
2024/04/10 05:45:18;;;;;;;2.67;1.92;;;;;;;;;;5244938;27;20003;-55
2024/04/10 05:47:53;;;;;;;2.00;1.42;;;;;;;;;;5245102;27;20015;-51
2024/04/10 05:50:22;;;;;;;;;;;;;;;;;;5245553;27;20515;-52
2024/04/10 05:52:48;;;;;;;1.25;1.15;;;;;;;;;;5245261;27;19939;-52
2024/04/10 05:55:14;;;;;;;1.60;1.27;;;;;;;;;;5244767;27;20003;-52
2024/04/10 05:57:40;;;;;;;1.45;1.30;;;;;;;;;;5215744;27;19998;-51
2024/04/10 06:00:09;;;;;;;4.40;1.00;;;;;;;;;;5244655;27;20465;-54
2024/04/10 06:02:39;;;;;;;3.20;0.95;;;;;;;;;;5215733;27;20077;-51
2024/04/10 06:05:06;;;;;;;2.03;1.15;;;;;;;;;;5245077;27;20010;-53
2024/04/10 06:07:32;;;;;;;;;;;;;;;;;;5245419;27;20382;-54
2024/04/10 06:09:58;;;;;;;0.75;0.73;;;;;;;;;;5244646;27;19946;-54
2024/04/10 06:12:25;;;;;;;1.50;1.33;;;;;;;;;;5215245;27;20010;-52
2024/04/10 06:14:52;;;;;;;3.45;0.98;;;;;;;;;;5244918;27;20487;-52
2024/04/10 06:17:21;;;;;;;1.17;1.00;;;;;;;;;;5244878;27;20013;-55
2024/04/10 06:19:47;;;;;;;2.25;0.88;;;;;;;;;;5244625;27;20010;-56
2024/04/10 06:22:14;;;;;;;3.45;1.13;;;;;;;;;;5213738;27;20003;-58
2024/04/10 06:24:42;;;;;;;2.88;0.70;;;;;;;;;;5244687;27;20010;-58
2024/04/10 06:27:09;;;;;;;1.17;0.73;;;;;;;;;;5244554;27;20009;-56
2024/04/10 06:29:35;;;;;;;1.57;1.00;;;;;;;;;;5244389;27;20068;-53
2024/04/10 06:32:01;;;;;;;3.25;1.00;;;;;;;;;;5245001;27;19999;-55
2024/04/10 06:34:27;;;;;;;3.17;0.83;;;;;;;;;;5244687;27;20014;-53
2024/04/10 06:36:53;;;;;;;1.85;1.02;;;;;;;;;;5244269;27;20007;-52
2024/04/10 06:39:20;;;;;;;1.52;1.10;;;;;;;;;;5244278;27;20003;-54
2024/04/10 06:41:46;;;;;;;1.27;0.88;;;;;;;;;;5244024;27;20071;-51
2024/04/10 06:44:12;;;;;;;4.53;1.67;;;;;;;;;;5242821;27;19999;-55
2024/04/10 06:46:39;;;;;;;0.90;0.80;;;;;;;;;;5244551;27;20460;-54
2024/04/10 06:49:05;;;;;;;2.35;1.33;;;;;;;;;;5242546;27;20461;-52
2024/04/10 06:51:32;;;;;;;1.00;0.90;;;;;;;;;;5243928;27;19999;-51
2024/04/10 06:53:59;;;;;;;3.08;1.42;;;;;;;;;;5244337;27;20010;-51
2024/04/10 06:56:25;;;;;;;6.40;1.20;;;;;;;;;;5242811;27;20078;-51
2024/04/10 06:58:51;;;;;;;2.30;1.00;;;;;;;;;;5244163;27;20077;-52
2024/04/10 07:01:17;;;;;;;3.40;1.15;;;;;;;;;;5243750;27;20007;-53
2024/04/10 07:03:44;;;;;;;7.43;2.20;;;;;;;;;;5243956;27;20031;-52
2024/04/10 07:06:17;;;;;;;3.53;2.20;;;;;;;;;;5243898;27;20039;-51
2024/04/10 07:08:45;;;;;;;3.70;1.10;;;;;;;;;;5244244;27;19998;-52
2024/04/10 07:11:11;;;;;;;1.83;0.88;;;;;;;;;;5243998;27;20013;-55
2024/04/10 07:13:42;;;;;;;2.60;1.00;;;;;;;;;;5243966;27;20011;-53
2024/04/10 07:16:08;;;;;;;2.60;1.20;;;;;;;;;;5243965;27;20489;-56
2024/04/10 07:18:35;;;;;;;3.00;0.85;;;;;;;;;;5243653;27;20023;-56
2024/04/10 07:21:05;;;;;;;2.17;0.90;;;;;;;;;;5242050;27;20050;-55
2024/04/10 07:23:32;;;;;;;1.15;0.50;;;;;;;;;;5242423;27;20003;-57
2024/04/10 07:26:12;;;;;;;1.15;0.80;;;;;;;;;;5243696;27;20010;-52
2024/04/10 07:28:39;;;;;;;2.15;0.80;;;;;;;;;;5244046;27;20347;-51
2024/04/10 07:31:05;;;;;;;2.90;0.70;;;;;;;;;;5241804;27;19999;-56
2024/04/10 07:33:31;;;;;;;0.60;0.60;;;;;;;;;;5241415;27;20010;-55
2024/04/10 07:35:57;;;;;;;1.53;0.70;;;;;;;;;;5243512;27;20031;-55
2024/04/10 07:38:24;;;;;;;0.57;0.35;;;;;;;;;;5243966;27;20326;-52
2024/04/10 07:40:53;;;;;;;2.08;0.93;;;;;;;;;;5241861;27;20014;-52
2024/04/10 07:43:19;;;;;;;1.02;0.57;;;;;;;;;;5243425;27;20003;-56
2024/04/10 07:45:46;;;;;;;1.55;0.50;;;;;;;;;;5243335;27;20006;-54
2024/04/10 07:48:12;;;;;;;1.37;0.70;;;;;;;;;;5243345;27;20023;-56
2024/04/10 07:50:39;;;;;;;4.22;0.60;;;;;;;;;;5214055;27;20003;-51
2024/04/10 07:53:06;;;;;;;1.38;0.60;;;;;;;;;;5243496;27;20472;-55
2024/04/10 07:55:32;;;;;;;1.58;0.77;;;;;;;;;;5243406;27;20003;-53
2024/04/10 07:57:59;;;;;;;2.37;1.03;;;;;;;;;;5241894;27;20003;-53
2024/04/10 08:00:25;;;;;;;0.38;0.38;;;;;;;;;;5242971;27;20010;-52
2024/04/10 08:02:51;;;;;;;3.58;0.50;;;;;;;;;;5243158;27;20011;-55
2024/04/10 08:05:17;;;;;;;1.10;0.25;;;;;;;;;;5214088;27;20003;-53
2024/04/10 08:07:44;;;;;;;2.50;0.40;;;;;;;;;;5241711;27;20014;-52
2024/04/10 08:10:10;;;;;;;1.35;0.30;;;;;;;;;;5213380;27;20468;-54
2024/04/10 08:12:36;;;;;;;0.28;0.28;;;;;;;;;;5243089;27;20356;-52
2024/04/10 08:15:03;;;;;;;1.30;0.60;;;;;;;;;;5243537;27;20007;-51
2024/04/10 08:17:30;;;;;;;1.92;0.60;;;;;;;;;;5243218;27;19999;-53
2024/04/10 08:19:56;;;;;;;0.43;0.35;;;;;;;;;;5242803;27;20010;-52
2024/04/10 08:22:22;;;;;;;2.63;0.30;;;;;;;;;;5242898;27;19999;-55
2024/04/10 08:24:50;;;;;;;1.55;0.40;;;;;;;;;;5243087;27;20003;-53
2024/04/10 08:27:16;;;;;;;0.98;0.40;;;;;;;;;;5242735;27;20006;-55
2024/04/10 08:29:47;;;;;;;0.32;0.28;;;;;;;;;;5242707;27;19995;-54
2024/04/10 08:32:13;;;;;;;1.17;0.68;;;;;;;;;;5213579;27;20013;-51
2024/04/10 08:34:39;;;;;;;1.27;0.73;;;;;;;;;;5243017;27;20002;-49
2024/04/10 08:37:06;;;;;;;2.10;0.43;;;;;;;;;;5243303;27;20329;-49
2024/04/10 08:39:32;;;;;;;1.45;0.25;;;;;;;;;;5243031;27;20003;-53
2024/04/10 08:41:59;;;;;;;0.30;0.30;;;;;;;;;;5242667;27;20456;-52
2024/04/10 08:44:29;;;;;;;0.35;0.30;;;;;;;;;;5213010;27;20028;-50
2024/04/10 08:46:55;;;;;;;1.73;0.30;;;;;;;;;;5242084;27;20543;-50
2024/04/10 08:49:22;;;;;;;0.70;0.70;;;;;;;;;;5240960;27;20047;-49
2024/04/10 08:51:48;;;;;;;0.35;0.30;;;;;;;;;;5242440;27;19995;-50
2024/04/10 08:54:17;;;;;;;1.57;0.23;;;;;;;;;;5242605;27;20003;-52
2024/04/10 08:56:43;;;;;;;0.45;0.40;;;;;;;;;;5242610;27;20362;-50
2024/04/10 08:59:09;;;;;;;0.65;0.47;;;;;;;;;;5240751;27;20013;-50
2024/04/10 09:01:41;;;;;;;0.38;0.35;;;;;;;;;;5242093;27;20471;-50
2024/04/10 09:04:11;;;;;;;1.67;0.40;;;;;;;;;;5242479;27;20007;-51
2024/04/10 09:06:37;;;;;;;0.65;0.45;;;;;;;;;;5242669;27;19995;-50
2024/04/10 09:09:06;;;;;;;0.80;0.63;;;;;;;;;;5242558;27;20011;-50
2024/04/10 09:11:33;;;;;;;0.93;0.65;;;;;;;;;;5241944;27;20014;-53
2024/04/10 09:14:03;;;;;;;4.88;0.68;;;;;;;;;;5242199;27;20006;-50
2024/04/10 09:16:30;;;;;;;1.02;0.60;;;;;;;;;;5240317;27;20014;-53
2024/04/10 09:18:56;;;;;;;0.88;0.50;;;;;;;;;;5242116;27;20003;-50
2024/04/10 09:21:22;;;;;;;0.55;0.50;;;;;;;;;;5240199;27;20478;-50
2024/04/10 09:23:58;;;;;;;4.68;0.40;;;;;;;;;;5240446;27;19995;-50
2024/04/10 09:26:24;;;;;;;2.72;0.68;;;;;;;;;;5242114;27;20014;-51
2024/04/10 09:28:50;;;;;;;5.07;0.68;;;;;;;;;;5240466;27;20007;-50
2024/04/10 09:31:21;;;;;;;0.60;0.47;;;;;;;;;;5241882;27;20014;-50
2024/04/10 09:33:49;;;;;;;1.42;0.65;;;;;;;;;;5242419;27;19995;-52
2024/04/10 09:36:16;;;;;;;1.08;0.73;;;;;;;;;;5241839;27;20003;-50
2024/04/10 09:38:42;;;;;;;1.60;0.75;;;;;;;;;;5241661;27;20002;-50
2024/04/10 09:41:08;;;;;;;0.52;0.50;;;;;;;;;;5212100;27;20347;-50
2024/04/10 09:43:36;;;;;;;0.98;0.60;;;;;;;;;;5241731;27;20013;-50
2024/04/10 09:46:03;;;;;;;1.63;0.73;;;;;;;;;;5241812;27;19999;-50
2024/04/10 09:48:33;;;;;;;1.13;1.02;;;;;;;;;;5241544;27;20085;-51
2024/04/10 09:51:02;;;;;;;3.47;1.15;;;;;;;;;;5241630;27;19999;-49
2024/04/10 09:53:29;;;;;;;0.70;0.70;;;;;;;;;;5241632;27;20010;-50
2024/04/10 09:55:56;;;;;;;0.70;0.70;;;;;;;;;;5240197;27;20090;-54
2024/04/10 09:58:22;;;;;;;1.67;0.63;;;;;;;;;;5215642;27;19999;-50
2024/04/10 10:00:48;;;;;;;0.60;0.60;;;;;;;;;;5244691;27;20326;-49
2024/04/10 10:03:23;;;;;;;2.67;1.00;;;;;;;;;;5245036;27;19999;-50
2024/04/10 10:06:00;;;;;;;1.27;1.10;;;;;;;;;;5245001;27;20013;-50
2024/04/10 10:08:26;;;;;;;3.15;1.00;;;;;;;;;;5245175;27;20003;-49
2024/04/10 10:10:52;;;;;;;1.13;0.85;;;;;;;;;;5244805;27;20010;-49
2024/04/10 10:13:31;;;;;;;0.80;0.73;;;;;;;;;;5243086;27;20003;-50
2024/04/10 10:15:58;;;;;;;0.70;0.70;;;;;;;;;;5241483;27;20003;-50
2024/04/10 10:18:25;;;;;;;1.02;0.93;;;;;;;;;;5242019;27;20464;-50
2024/04/10 10:21:04;;;;;;;2.85;1.10;;;;;;;;;;5244030;27;20349;-49
2024/04/10 10:23:31;;;;;;;1.92;1.05;;;;;;;;;;5244326;27;20006;-50
2024/04/10 10:25:57;;;;;;;0.82;0.80;;;;;;;;;;5215171;27;20066;-50
2024/04/10 10:28:23;;;;;;;1.27;1.13;;;;;;;;;;5244303;27;20595;-49
2024/04/10 10:30:49;;;;;;;1.75;1.00;;;;;;;;;;5243803;27;20003;-49
2024/04/10 10:33:22;;;;;;;1.20;0.90;;;;;;;;;;5241434;27;20007;-50
2024/04/10 10:35:48;;;;;;;1.55;0.88;;;;;;;;;;5288985;21;20027;-50
2024/04/10 10:38:16;;;;;;;2.55;0.98;;;;;;;;;;5344392;26;20046;-49
2024/04/10 10:40:42;;;;;;;2.58;1.10;;;;;;;;;;5332348;26;20022;-51
2024/04/10 10:43:10;;;;;;;0.55;0.55;;;;;;;;;;5313509;26;19996;-50
2024/04/10 10:45:36;;;;;;;2.38;1.08;;;;;;;;;;5305353;27;20083;-49
2024/04/10 10:48:03;;;;;;;0.77;0.70;;;;;;;;;;5340961;26;20005;-51
2024/04/10 10:50:30;;;;;;;1.27;0.82;;;;;;;;;;5321779;26;20076;-48
2024/04/10 10:52:57;;;;;;;5.60;1.85;;;;;;;;;;5329736;26;20094;-49
2024/04/10 10:55:23;;;;;;;;;;;;;;;;;;5342651;26;20528;-48
2024/04/10 10:58:00;;;;;;;0.85;0.85;;;;;;;;;;5336490;26;19926;-49
2024/04/10 11:00:29;;;;;;;2.25;1.10;;;;;;;;;;5316934;26;20080;-50
2024/04/10 11:02:56;;;;;;;1.20;0.90;;;;;;;;;;5343179;26;20001;-50
2024/04/10 11:05:23;;;;;;;1.30;0.80;;;;;;;;;;5279515;27;20001;-50
2024/04/10 11:07:58;;;;;;;2.58;1.15;;;;;;;;;;5309486;27;20311;-49
2024/04/10 11:10:27;;;;;;;4.15;1.50;;;;;;;;;;5323001;26;20427;-49
2024/04/10 11:13:08;;;;;;;2.35;1.10;;;;;;;;;;5339350;26;20450;-50
2024/04/10 11:15:50;;;;;;;2.88;1.00;;;;;;;;;;5334797;26;20075;-49
2024/04/10 11:18:18;;;;;;;2.20;1.27;;;;;;;;;;5314343;26;20008;-49
2024/04/10 11:20:46;;;;;;;2.03;1.45;;;;;;;;;;5341867;26;20001;-49
2024/04/10 11:23:12;;;;;;;2.42;1.20;;;;;;;;;;5326515;26;20001;-50
2024/04/10 11:25:38;;;;;;;3.65;1.45;;;;;;;;;;5342707;26;20001;-48
2024/04/10 11:28:05;;;;;;;2.73;1.40;;;;;;;;;;5344528;26;20373;-49
2024/04/10 11:30:32;;;;;;;6.68;1.60;;;;;;;;;;5307385;27;20083;-50
2024/04/10 11:32:58;;;;;;;;;;;;;;;;;;5312584;26;20005;-49
2024/04/10 11:35:25;;;;;;;3.90;1.42;;;;;;;;;;5309515;26;19927;-48
2024/04/10 11:37:52;;;;;;;2.22;1.85;;;;;;;;;;5321407;26;20083;-49
2024/04/10 11:40:19;;;;;;;2.13;1.15;;;;;;;;;;5313116;26;20009;-49
2024/04/10 11:42:46;;;;;;;2.05;1.50;;;;;;;;;;5344257;26;20001;-48
2024/04/10 11:45:12;;;;;;;3.25;1.05;;;;;;;;;;5308983;26;20083;-50
2024/04/10 11:47:41;;;;;;;1.67;0.90;;;;;;;;;;5311540;26;20001;-50
2024/04/10 11:50:07;;;;;;;3.15;1.25;;;;;;;;;;5335434;26;20776;-49
2024/04/10 11:52:40;;;;;;;2.05;0.90;;;;;;;;;;5307148;27;20009;-50
2024/04/10 11:55:07;;;;;;;1.67;1.20;;;;;;;;;;5311612;26;20455;-50
2024/04/10 11:57:34;;;;;;;3.42;1.13;;;;;;;;;;5307577;27;20014;-49
2024/04/10 12:00:00;;;;;;;3.15;1.35;;;;;;;;;;5336717;26;20374;-50
2024/04/10 12:02:28;;;;;;;5.57;1.63;;;;;;;;;;5307875;27;20023;-49
2024/04/10 12:04:55;;;;;;;10.40;2.25;;;;;;;;;;5341233;26;20070;-51
2024/04/10 12:07:21;;;;;;;6.15;1.80;;;;;;;;;;5341514;26;20017;-49
2024/04/10 12:09:47;;;;;;;4.15;0.80;;;;;;;;;;5343066;26;20086;-51
2024/04/10 12:12:14;;;;;;;11.07;1.47;;;;;;;;;;5341083;26;20004;-49
2024/04/10 12:14:44;;;;;;;4.78;1.75;;;;;;;;;;5307277;26;20006;-49
2024/04/10 12:17:11;;;;;;;2.95;0.90;;;;;;;;;;5343495;26;19996;-49
2024/04/10 12:19:37;;;;;;;1.88;1.30;;;;;;;;;;5337380;26;20011;-48
2024/04/10 12:22:03;;;;;;;4.83;1.33;;;;;;;;;;5313106;26;20004;-49
2024/04/10 12:24:29;;;;;;;2.40;1.00;;;;;;;;;;5307333;26;20233;-51
2024/04/10 12:26:56;;;;;;;4.05;0.95;;;;;;;;;;5307310;27;20005;-49
2024/04/10 12:29:22;;;;;;;;;;;;;;;;;;5320733;26;20071;-50
2024/04/10 12:31:49;;;;;;;3.00;1.13;;;;;;;;;;5306588;27;19950;-48
2024/04/10 12:34:15;;;;;;;1.75;1.38;;;;;;;;;;5312522;26;20467;-48
2024/04/10 12:39:27;;;;;;;2.47;1.38;;;;;;;;;;5337175;26;20232;-49
2024/04/10 12:41:54;;;;;;;3.00;1.48;;;;;;;;;;5312207;26;20472;-49
2024/04/10 12:44:21;;;;;;;3.97;1.90;;;;;;;;;;5343295;26;20008;-49
2024/04/10 12:46:53;;;;;;;3.40;2.00;;;;;;;;;;5317973;26;20013;-49
2024/04/10 12:49:23;;;;;;;4.80;2.13;;;;;;;;;;5314638;26;20006;-49
2024/04/10 12:51:49;;;;;;;9.50;2.92;;;;;;;;;;5310221;26;20012;-49
2024/04/10 12:54:16;;;;;;;8.32;2.72;;;;;;;;;;5308701;26;20005;-49
2024/04/10 12:56:43;;;;;;;6.78;3.53;;;;;;;;;;5310451;26;20079;-49
2024/04/10 12:59:09;;;;;;;3.70;2.35;;;;;;;;;;5312265;26;20035;-49
2024/04/10 13:01:36;;;;;;;6.03;3.15;;;;;;;;;;5313951;26;20006;-51
2024/04/10 13:04:03;;;;;;;;;;;;;;;;;;5307159;27;20006;-48
2024/04/10 13:06:30;;;;;;;4.25;2.47;;;;;;;;;;5306565;26;19934;-49
2024/04/10 13:08:56;;;;;;;7.63;1.90;;;;;;;;;;5308927;26;20009;-50
2024/04/10 13:11:22;;;;;;;6.18;2.20;;;;;;;;;;5308291;26;19998;-50
2024/04/10 13:13:49;;;;;;;4.50;2.53;;;;;;;;;;5320707;26;20016;-49
2024/04/10 13:16:15;;;;;;;3.28;2.42;;;;;;;;;;5319642;26;20520;-50
2024/04/10 13:18:42;;;;;;;5.45;3.67;;;;;;;;;;5309431;26;20002;-49
2024/04/10 13:21:08;;;;;;;4.05;2.90;;;;;;;;;;5312489;26;20473;-49
2024/04/10 13:23:36;;;;;;;3.53;2.80;;;;;;;;;;5316591;26;20356;-48
2024/04/10 13:26:10;;;;;;;3.20;2.63;;;;;;;;;;5331412;26;20001;-49
2024/04/10 13:28:37;;;;;;;2.95;2.65;;;;;;;;;;5309400;27;20012;-49
2024/04/10 13:31:11;;;;;;;3.72;2.92;;;;;;;;;;5310069;27;20370;-49
2024/04/10 13:33:42;;;;;;;6.35;3.97;;;;;;;;;;5319513;26;20540;-49
2024/04/10 13:36:12;;;;;;;3.47;3.00;;;;;;;;;;5310590;26;19998;-50
2024/04/10 13:38:42;;;;;;;4.32;3.08;;;;;;;;;;5314275;26;20002;-49
2024/04/10 13:41:09;;;;;;;4.72;2.97;;;;;;;;;;5331773;26;20081;-48
2024/04/10 13:43:38;;;;;;;4.38;2.95;;;;;;;;;;5328901;26;20015;-48
2024/04/10 13:46:05;;;;;;;2.97;2.58;;;;;;;;;;5300357;26;20006;-50
2024/04/10 13:48:35;;;;;;;4.68;3.33;;;;;;;;;;5294994;26;20028;-48
2024/04/10 13:51:02;;;;;;;6.15;2.53;;;;;;;;;;5328393;26;20004;-48
2024/04/10 13:53:30;;;;;;;4.43;3.00;;;;;;;;;;5277568;26;20499;-51
2024/04/10 13:56:06;;;;;;;4.97;2.83;;;;;;;;;;5324519;26;20462;-49
2024/04/10 13:58:32;;;;;;;4.95;2.72;;;;;;;;;;5368453;26;20069;-52
2024/04/10 14:00:59;;;;;;;4.97;2.72;;;;;;;;;;5342231;26;20016;-48
2024/04/10 14:03:25;;;;;;;6.25;2.75;;;;;;;;;;5313900;26;20080;-50
2024/04/10 14:06:04;;;;;;;5.03;2.23;;;;;;;;;;5324498;26;20006;-49
2024/04/10 14:08:30;;;;;;;5.18;2.90;;;;;;;;;;5324302;26;20235;-49
2024/04/10 14:11:06;;;;;;;5.83;2.80;;;;;;;;;;5276595;26;20020;-51
2024/04/10 14:13:33;;;;;;;2.38;2.17;;;;;;;;;;5323637;26;20054;-50
2024/04/10 14:16:00;;;;;;;5.03;2.38;;;;;;;;;;5326038;26;20405;-50
2024/04/10 14:18:27;;;;;;;2.67;2.25;;;;;;;;;;5323986;26;20034;-47
2024/04/10 14:21:00;;;;;;;4.28;1.98;;;;;;;;;;5334029;26;20429;-49
2024/04/10 14:23:26;;;;;;;3.88;2.00;;;;;;;;;;5320767;26;19997;-49
2024/04/10 14:25:54;;;;;;;2.90;2.55;;;;;;;;;;5320231;26;19997;-50
2024/04/10 14:28:22;;;;;;;2.70;1.70;;;;;;;;;;5312507;26;19998;-50
2024/04/10 14:31:00;;;;;;;4.75;2.10;;;;;;;;;;5323336;26;20005;-49
2024/04/10 14:33:27;;;;;;;5.32;2.22;;;;;;;;;;5284602;26;20079;-49
2024/04/10 14:35:54;;;;;;;1.67;1.38;;;;;;;;;;5300518;26;20047;-50
2024/04/10 14:38:21;;;;;;;2.38;1.10;;;;;;;;;;5321974;26;20005;-49
2024/04/10 14:40:47;;;;;;;;;;;;;;;;;;5321027;26;20566;-48
2024/04/10 14:43:13;;;;;;;4.57;1.13;;;;;;;;;;5322968;26;20402;-50
2024/04/10 14:45:39;;;;;;;1.70;1.08;;;;;;;;;;5332520;26;20024;-50